createdAt,value
2024-04-21T00:00:22.439Z,3.98
2024-04-21T00:02:50.267Z,4.03
2024-04-21T00:05:18.632Z,4.09
2024-04-21T00:07:46.180Z,4.08
2024-04-21T00:10:13.986Z,4.16
2024-04-21T00:12:44.979Z,4.12
2024-04-21T00:15:17.548Z,4.03
2024-04-21T00:17:45.229Z,4.04
2024-04-21T00:20:15.715Z,3.93
2024-04-21T00:22:43.360Z,3.96
2024-04-21T00:25:12.176Z,4.01
2024-04-21T00:27:40.802Z,3.99
2024-04-21T00:30:12.816Z,3.94
2024-04-21T00:32:41.385Z,3.94
2024-04-21T00:35:09.250Z,3.91
2024-04-21T00:37:38.915Z,3.99
2024-04-21T00:40:07.506Z,3.87
2024-04-21T00:42:36.136Z,3.73
2024-04-21T00:45:04.300Z,3.82
2024-04-21T00:47:32.129Z,3.64
2024-04-21T00:50:00.149Z,3.62
2024-04-21T00:52:28.035Z,3.61
2024-04-21T00:54:55.962Z,3.59
2024-04-21T00:57:24.663Z,3.50
2024-04-21T00:59:53.439Z,3.52
2024-04-21T01:02:21.239Z,3.46
2024-04-21T01:04:50.397Z,3.46
2024-04-21T01:07:18.284Z,3.49
2024-04-21T01:09:46.406Z,3.49
2024-04-21T01:12:13.892Z,3.50
2024-04-21T01:14:41.859Z,3.46
2024-04-21T01:17:09.642Z,3.46
2024-04-21T01:19:36.994Z,3.40
2024-04-21T01:22:04.924Z,3.43
2024-04-21T01:24:32.567Z,3.47
2024-04-21T01:27:00.489Z,3.49
2024-04-21T01:29:28.641Z,3.47
2024-04-21T01:31:57.155Z,3.37
2024-04-21T01:34:25.325Z,3.31
2024-04-21T01:36:52.750Z,3.27
2024-04-21T01:39:20.079Z,3.27
2024-04-21T01:41:47.580Z,3.32
2024-04-21T01:44:15.608Z,3.33
2024-04-21T01:46:43.403Z,3.35
2024-04-21T01:49:11.088Z,3.33
2024-04-21T01:51:39.059Z,3.31
2024-04-21T01:54:06.731Z,3.33
2024-04-21T01:56:34.573Z,3.26
2024-04-21T01:59:02.304Z,3.30
2024-04-21T02:01:30.063Z,3.19
2024-04-21T02:03:58.720Z,3.12
2024-04-21T02:06:27.722Z,3.00
2024-04-21T02:08:55.673Z,2.93
2024-04-21T02:11:23.160Z,2.81
2024-04-21T02:13:51.443Z,2.86
2024-04-21T02:16:19.678Z,2.74
2024-04-21T02:18:47.713Z,2.78
2024-04-21T02:21:16.134Z,2.63
2024-04-21T02:23:43.908Z,2.67
2024-04-21T02:26:11.213Z,2.62
2024-04-21T02:28:38.585Z,2.66
2024-04-21T02:31:06.903Z,2.62
2024-04-21T02:33:36.741Z,2.66
2024-04-21T02:36:05.167Z,2.64
2024-04-21T02:38:33.392Z,2.69
2024-04-21T02:41:01.217Z,2.70
2024-04-21T02:43:32.138Z,2.79
2024-04-21T02:46:02.089Z,2.76
2024-04-21T02:48:34.318Z,2.74
2024-04-21T02:51:02.306Z,2.79
2024-04-21T02:53:30.342Z,2.68
2024-04-21T02:55:59.567Z,2.81
2024-04-21T02:58:28.160Z,2.87
2024-04-21T03:00:56.123Z,2.81
2024-04-21T03:03:25.552Z,2.80
2024-04-21T03:05:59.932Z,2.88
2024-04-21T03:08:28.092Z,2.67
2024-04-21T03:10:55.881Z,2.60
2024-04-21T03:13:24.272Z,2.60
2024-04-21T03:15:52.203Z,2.54
2024-04-21T03:18:20.133Z,2.51
2024-04-21T03:20:58.732Z,2.47
2024-04-21T03:23:27.296Z,2.38
2024-04-21T03:25:55.389Z,2.40
2024-04-21T03:28:24.255Z,2.36
2024-04-21T03:31:02.151Z,2.34
2024-04-21T03:33:30.151Z,2.27
2024-04-21T03:36:09.037Z,2.30
2024-04-21T03:38:37.242Z,2.29
2024-04-21T03:41:08.929Z,2.28
2024-04-21T03:43:37.222Z,2.20
2024-04-21T03:46:05.175Z,2.20
2024-04-21T03:48:33.739Z,2.13
2024-04-21T03:51:01.998Z,2.06
2024-04-21T03:53:29.821Z,2.13
2024-04-21T03:55:57.259Z,2.08
2024-04-21T03:58:25.536Z,2.00
2024-04-21T04:00:53.381Z,1.95
2024-04-21T04:03:21.195Z,1.95
2024-04-21T04:05:51.031Z,1.95
2024-04-21T04:08:19.090Z,1.89
2024-04-21T04:10:46.914Z,1.88
2024-04-21T04:13:14.691Z,1.81
2024-04-21T04:15:42.472Z,1.84
2024-04-21T04:18:10.503Z,1.80
2024-04-21T04:20:38.961Z,1.78
2024-04-21T04:23:06.924Z,1.83
2024-04-21T04:25:34.325Z,1.81
2024-04-21T04:28:02.227Z,1.90
2024-04-21T04:30:30.288Z,1.91
2024-04-21T04:32:57.999Z,1.95
2024-04-21T04:35:25.875Z,2.05
2024-04-21T04:37:55.439Z,2.18
2024-04-21T04:40:24.357Z,2.28
2024-04-21T04:42:52.127Z,2.34
2024-04-21T04:45:21.300Z,2.46
2024-04-21T04:47:50.870Z,2.56
2024-04-21T04:50:18.215Z,2.73
2024-04-21T04:52:45.583Z,2.78
2024-04-21T04:55:13.301Z,2.85
2024-04-21T04:57:41.580Z,2.97
2024-04-21T05:00:10.357Z,2.95
2024-04-21T05:02:38.341Z,2.97
2024-04-21T05:05:06.851Z,3.13
2024-04-21T05:07:36.116Z,3.26
2024-04-21T05:10:04.044Z,3.29
2024-04-21T05:12:31.851Z,3.40
2024-04-21T05:14:59.453Z,3.50
2024-04-21T05:17:27.952Z,3.56
2024-04-21T05:19:56.327Z,3.61
2024-04-21T05:22:24.388Z,3.79
2024-04-21T05:24:52.045Z,3.87
2024-04-21T05:27:19.495Z,4.00
2024-04-21T05:29:48.533Z,4.06
2024-04-21T05:32:16.278Z,4.02
2024-04-21T05:34:44.217Z,4.10
2024-04-21T05:37:12.674Z,4.25
2024-04-21T05:39:40.459Z,4.30
2024-04-21T05:42:08.199Z,4.39
2024-04-21T05:44:36.111Z,4.46
2024-04-21T05:47:03.963Z,4.59
2024-04-21T05:49:31.936Z,4.69
2024-04-21T05:51:59.591Z,4.65
2024-04-21T05:54:27.739Z,4.85
2024-04-21T05:56:55.691Z,4.84
2024-04-21T05:59:27.328Z,4.78
2024-04-21T06:01:57.057Z,4.90
2024-04-21T06:04:25.005Z,4.87
2024-04-21T06:06:53.204Z,4.98
2024-04-21T06:09:21.009Z,5.00
2024-04-21T06:11:48.762Z,5.09
2024-04-21T06:14:16.775Z,5.09
2024-04-21T06:16:44.104Z,5.20
2024-04-21T06:19:11.947Z,5.28
2024-04-21T06:21:39.890Z,5.26
2024-04-21T06:24:08.617Z,5.40
2024-04-21T06:26:36.531Z,5.41
2024-04-21T06:29:06.986Z,5.50
2024-04-21T06:31:34.667Z,5.44
2024-04-21T06:34:02.612Z,5.54
2024-04-21T06:36:31.141Z,5.44
2024-04-21T06:38:58.577Z,5.54
2024-04-21T06:41:26.333Z,5.66
2024-04-21T06:43:53.764Z,5.72
2024-04-21T06:46:21.605Z,5.88
2024-04-21T06:48:49.610Z,5.93
2024-04-21T06:51:17.123Z,5.99
2024-04-21T06:53:44.926Z,6.06
2024-04-21T06:56:12.499Z,5.96
2024-04-21T06:58:40.186Z,5.90
2024-04-21T07:01:09.750Z,5.92
2024-04-21T07:03:37.679Z,6.08
2024-04-21T07:06:06.183Z,6.20
2024-04-21T07:08:33.954Z,6.34
2024-04-21T07:11:02.501Z,6.46
2024-04-21T07:13:30.367Z,6.38
2024-04-21T07:15:59.796Z,6.36
2024-04-21T07:18:27.372Z,6.47
2024-04-21T07:20:55.736Z,6.52
2024-04-21T07:23:24.140Z,6.65
2024-04-21T07:25:51.696Z,6.72
2024-04-21T07:28:21.973Z,6.64
2024-04-21T07:30:50.061Z,6.69
2024-04-21T07:33:17.783Z,6.73
2024-04-21T07:35:45.544Z,6.76
2024-04-21T07:38:14.085Z,6.76
2024-04-21T07:40:44.519Z,6.99
2024-04-21T07:43:13.819Z,6.68
2024-04-21T07:45:41.550Z,6.73
2024-04-21T07:48:09.928Z,6.56
2024-04-21T07:50:38.249Z,6.90
2024-04-21T07:53:05.830Z,7.27
2024-04-21T07:55:33.726Z,7.47
2024-04-21T07:58:03.264Z,7.55
2024-04-21T08:00:31.648Z,7.55
2024-04-21T08:02:59.239Z,7.43
2024-04-21T08:05:27.210Z,7.40
2024-04-21T08:07:55.274Z,7.21
2024-04-21T08:10:27.121Z,7.28
2024-04-21T08:12:56.787Z,7.40
2024-04-21T08:15:25.444Z,7.25
2024-04-21T08:17:53.358Z,7.45
2024-04-21T08:20:21.281Z,7.64
2024-04-21T08:22:50.826Z,7.88
2024-04-21T08:25:18.230Z,8.01
2024-04-21T08:27:46.694Z,8.15
2024-04-21T08:30:14.427Z,8.33
2024-04-21T08:32:41.969Z,8.34
2024-04-21T08:35:09.764Z,8.45
2024-04-21T08:37:37.222Z,8.20
2024-04-21T08:40:07.545Z,8.25
2024-04-21T08:42:39.558Z,8.20
2024-04-21T08:45:08.979Z,8.25
2024-04-21T08:47:38.809Z,8.23
2024-04-21T08:50:07.700Z,8.14
2024-04-21T08:52:35.645Z,8.35
2024-04-21T08:55:08.715Z,8.72
2024-04-21T08:57:36.695Z,8.97
2024-04-21T09:00:05.207Z,8.79
2024-04-21T09:02:33.346Z,9.06
2024-04-21T09:05:03.346Z,9.29
2024-04-21T09:07:36.414Z,9.10
2024-04-21T09:10:04.183Z,8.92
2024-04-21T09:12:34.088Z,9.16
2024-04-21T09:15:02.213Z,9.17
2024-04-21T09:17:30.496Z,9.04
2024-04-21T09:19:58.317Z,9.09
2024-04-21T09:22:27.538Z,8.61
2024-04-21T09:24:55.135Z,9.07
2024-04-21T09:27:27.443Z,9.48
2024-04-21T09:29:59.242Z,9.20
2024-04-21T09:32:27.528Z,9.09
2024-04-21T09:34:56.146Z,9.07
2024-04-21T09:37:23.713Z,9.08
2024-04-21T09:39:53.287Z,9.56
2024-04-21T09:42:22.681Z,9.49
2024-04-21T09:44:51.506Z,9.82
2024-04-21T09:47:21.756Z,9.74
2024-04-21T09:49:50.163Z,9.75
2024-04-21T09:52:17.446Z,9.98
2024-04-21T09:54:45.807Z,9.88
2024-04-21T09:57:20.688Z,10.19
2024-04-21T09:59:49.011Z,9.97
2024-04-21T10:02:31.141Z,9.82
2024-04-21T10:05:06.831Z,9.49
2024-04-21T10:07:39.879Z,9.86
2024-04-21T10:10:23.757Z,9.41
2024-04-21T10:12:56.257Z,9.52
2024-04-21T10:15:27.068Z,9.39
2024-04-21T10:17:58.034Z,9.26
2024-04-21T10:20:33.007Z,9.45
2024-04-21T10:23:06.842Z,9.40
2024-04-21T10:25:35.420Z,9.75
2024-04-21T10:28:09.441Z,10.00
2024-04-21T10:30:38.096Z,10.08
2024-04-21T10:33:12.088Z,9.83
2024-04-21T10:35:41.557Z,10.23
2024-04-21T10:38:11.765Z,9.82
2024-04-21T10:40:49.646Z,10.33
2024-04-21T10:43:18.696Z,10.31
2024-04-21T10:45:46.155Z,10.61
2024-04-21T10:48:13.619Z,10.15
2024-04-21T10:50:42.726Z,9.82
2024-04-21T10:53:10.900Z,10.24
2024-04-21T10:55:38.149Z,10.16
2024-04-21T10:58:07.665Z,10.93
2024-04-21T11:00:39.904Z,10.81
2024-04-21T11:03:08.621Z,10.71
2024-04-21T11:05:51.554Z,10.53
2024-04-21T11:08:22.443Z,10.04
2024-04-21T11:10:52.164Z,10.46
2024-04-21T11:13:20.358Z,10.66
2024-04-21T11:15:47.625Z,10.20
2024-04-21T11:18:16.902Z,10.65
2024-04-21T11:20:44.639Z,10.53
2024-04-21T11:23:15.722Z,11.08
2024-04-21T11:25:43.163Z,11.14
2024-04-21T11:28:14.329Z,11.14
2024-04-21T11:30:42.496Z,11.34
2024-04-21T11:33:10.655Z,10.56
2024-04-21T11:35:38.796Z,10.88
2024-04-21T11:38:06.558Z,11.23
2024-04-21T11:40:39.299Z,11.36
2024-04-21T11:43:07.521Z,11.14
2024-04-21T11:45:35.380Z,11.49
2024-04-21T11:48:02.946Z,11.22
2024-04-21T11:50:30.471Z,10.82
2024-04-21T11:53:00.350Z,10.53
2024-04-21T11:55:30.801Z,10.81
2024-04-21T11:57:58.242Z,10.70
2024-04-21T12:00:25.772Z,10.35
2024-04-21T12:02:53.280Z,10.32
2024-04-21T12:05:20.734Z,9.92
2024-04-21T12:07:48.704Z,10.25
2024-04-21T12:10:16.431Z,10.74
2024-04-21T12:12:46.863Z,10.56
2024-04-21T12:15:14.059Z,11.26
2024-04-21T12:17:41.493Z,11.40
2024-04-21T12:20:11.834Z,10.87
2024-04-21T12:22:39.538Z,10.57
2024-04-21T12:25:07.271Z,10.60
2024-04-21T12:27:34.925Z,11.14
2024-04-21T12:30:02.658Z,11.46
2024-04-21T12:32:30.176Z,10.98
2024-04-21T12:34:57.472Z,11.35
2024-04-21T12:37:29.710Z,10.96
2024-04-21T12:39:57.671Z,11.11
2024-04-21T12:42:25.079Z,10.93
2024-04-21T12:44:52.310Z,10.81
2024-04-21T12:47:20.110Z,11.19
2024-04-21T12:49:47.507Z,11.18
2024-04-21T12:52:15.875Z,11.48
2024-04-21T12:54:43.402Z,11.36
2024-04-21T12:57:11.163Z,11.56
2024-04-21T12:59:39.048Z,11.23
2024-04-21T13:02:07.486Z,11.66
2024-04-21T13:04:35.484Z,11.90
2024-04-21T13:07:03.086Z,11.64
2024-04-21T13:09:33.386Z,11.64
2024-04-21T13:12:00.529Z,11.83
2024-04-21T13:14:28.756Z,11.46
2024-04-21T13:16:56.470Z,11.17
2024-04-21T13:19:27.319Z,11.21
2024-04-21T13:21:55.925Z,11.21
2024-04-21T13:24:23.594Z,11.75
2024-04-21T13:26:51.646Z,11.35
2024-04-21T13:29:22.107Z,11.38
2024-04-21T13:31:49.898Z,11.53
2024-04-21T13:34:17.157Z,11.90
2024-04-21T13:36:47.344Z,11.75
2024-04-21T13:39:15.242Z,11.81
2024-04-21T13:41:42.533Z,10.38
2024-04-21T13:44:10.254Z,10.85
2024-04-21T13:46:38.092Z,10.74
2024-04-21T13:49:06.080Z,10.27
2024-04-21T13:51:34.126Z,10.09
2024-04-21T13:54:02.780Z,10.48
2024-04-21T13:56:32.390Z,10.87
2024-04-21T13:59:00.490Z,11.22
2024-04-21T14:01:28.517Z,11.72
2024-04-21T14:03:58.822Z,11.76
2024-04-21T14:06:31.438Z,11.53
2024-04-21T14:09:01.154Z,11.59
2024-04-21T14:11:31.904Z,11.91
2024-04-21T14:14:00.940Z,11.29
2024-04-21T14:16:29.384Z,11.20
2024-04-21T14:18:59.077Z,10.63
2024-04-21T14:21:27.289Z,10.82
2024-04-21T14:23:56.601Z,9.97
2024-04-21T14:26:25.342Z,10.47
2024-04-21T14:28:53.306Z,10.48
2024-04-21T14:31:21.694Z,10.58
2024-04-21T14:33:49.763Z,10.71
2024-04-21T14:36:19.169Z,10.47
2024-04-21T14:38:50.045Z,10.15
2024-04-21T14:41:21.464Z,10.29
2024-04-21T14:43:48.945Z,10.13
2024-04-21T14:46:17.094Z,9.91
2024-04-21T14:48:45.696Z,10.09
2024-04-21T14:51:14.656Z,10.35
2024-04-21T14:53:42.165Z,10.18
2024-04-21T14:56:12.783Z,9.87
2024-04-21T14:58:43.119Z,9.75
2024-04-21T15:01:10.716Z,9.74
2024-04-21T15:03:38.674Z,9.84
2024-04-21T15:06:06.895Z,10.13
2024-04-21T15:08:35.044Z,9.76
2024-04-21T15:11:02.884Z,9.81
2024-04-21T15:13:30.858Z,9.65
2024-04-21T15:15:58.385Z,9.59
2024-04-21T15:18:26.240Z,9.54
2024-04-21T15:20:54.153Z,9.26
2024-04-21T15:23:21.678Z,9.21
2024-04-21T15:25:49.270Z,9.43
2024-04-21T15:28:17.292Z,9.63
2024-04-21T15:30:44.827Z,9.65
2024-04-21T15:33:13.953Z,9.31
2024-04-21T15:35:42.405Z,9.52
2024-04-21T15:38:09.974Z,9.41
2024-04-21T15:40:38.577Z,9.53
2024-04-21T15:43:08.201Z,9.44
2024-04-21T15:45:36.162Z,9.33
2024-04-21T15:48:03.986Z,8.90
2024-04-21T15:50:31.738Z,8.87
2024-04-21T15:52:59.263Z,8.98
2024-04-21T15:55:29.116Z,9.11
2024-04-21T15:57:57.081Z,9.04
2024-04-21T16:00:25.470Z,8.93
2024-04-21T16:02:52.912Z,9.25
2024-04-21T16:05:20.838Z,9.01
2024-04-21T16:07:48.484Z,8.80
2024-04-21T16:10:15.813Z,8.43
2024-04-21T16:12:44.205Z,8.56
2024-04-21T16:15:15.028Z,8.25
2024-04-21T16:17:42.915Z,8.07
2024-04-21T16:20:11.698Z,8.39
2024-04-21T16:22:40.317Z,8.03
2024-04-21T16:25:10.164Z,7.91
2024-04-21T16:27:37.962Z,7.73
2024-04-21T16:30:06.272Z,7.79
2024-04-21T16:32:34.150Z,7.71
2024-04-21T16:35:03.495Z,7.53
2024-04-21T16:37:34.007Z,7.41
2024-04-21T16:40:05.140Z,7.38
2024-04-21T16:42:33.254Z,7.44
2024-04-21T16:45:04.547Z,7.28
2024-04-21T16:47:36.803Z,7.15
2024-04-21T16:50:05.061Z,7.21
2024-04-21T16:52:33.870Z,7.34
2024-04-21T16:55:02.355Z,7.16
2024-04-21T16:57:30.407Z,7.22
2024-04-21T16:59:59.053Z,7.12
2024-04-21T17:02:30.256Z,7.16
2024-04-21T17:04:59.764Z,7.11
2024-04-21T17:07:34.732Z,6.85
2024-04-21T17:10:05.266Z,6.58
2024-04-21T17:12:34.633Z,6.42
2024-04-21T17:15:02.593Z,6.39
2024-04-21T17:17:30.146Z,6.11
2024-04-21T17:19:58.021Z,6.02
2024-04-21T17:22:25.892Z,6.00
2024-04-21T17:24:54.067Z,6.02
2024-04-21T17:27:21.795Z,5.90
2024-04-21T17:29:48.925Z,5.70
2024-04-21T17:32:16.485Z,5.54
2024-04-21T17:34:44.677Z,5.55
2024-04-21T17:37:12.391Z,5.47
2024-04-21T17:39:40.243Z,5.38
2024-04-21T17:42:07.737Z,5.35
2024-04-21T17:44:35.260Z,5.30
2024-04-21T17:47:03.182Z,5.23
2024-04-21T17:49:30.884Z,5.18
2024-04-21T17:52:00.332Z,5.06
2024-04-21T17:54:28.025Z,4.95
2024-04-21T17:56:55.215Z,4.88
2024-04-21T17:59:22.886Z,4.83
2024-04-21T18:01:50.895Z,4.83
2024-04-21T18:04:18.834Z,4.72
2024-04-21T18:06:46.425Z,4.65
2024-04-21T18:09:13.991Z,4.64
2024-04-21T18:11:41.782Z,4.58
2024-04-21T18:14:09.379Z,4.68
2024-04-21T18:16:37.224Z,4.53
2024-04-21T18:19:04.951Z,4.53
2024-04-21T18:21:32.669Z,4.47
2024-04-21T18:24:00.234Z,4.44
2024-04-21T18:26:27.733Z,4.44
2024-04-21T18:28:55.948Z,4.43
2024-04-21T18:31:24.166Z,4.34
2024-04-21T18:33:52.149Z,4.36
2024-04-21T18:36:19.591Z,4.26
2024-04-21T18:38:48.968Z,4.22
2024-04-21T18:41:16.617Z,4.09
2024-04-21T18:43:44.247Z,4.00
2024-04-21T18:46:12.170Z,3.96
2024-04-21T18:48:40.349Z,4.10
2024-04-21T18:51:08.145Z,3.99
2024-04-21T18:53:36.139Z,4.10
2024-04-21T18:56:07.178Z,4.18
2024-04-21T18:58:35.069Z,4.00
2024-04-21T19:01:12.524Z,3.97
2024-04-21T19:03:41.400Z,4.02
2024-04-21T19:06:10.289Z,3.99
2024-04-21T19:08:38.495Z,3.92
2024-04-21T19:11:12.316Z,3.91
2024-04-21T19:13:44.206Z,3.83
2024-04-21T19:16:14.087Z,3.84
2024-04-21T19:18:41.779Z,3.82
2024-04-21T19:21:10.042Z,3.79
2024-04-21T19:23:38.507Z,3.80
2024-04-21T19:26:06.188Z,3.73
2024-04-21T19:28:36.454Z,3.69
2024-04-21T19:31:04.314Z,3.65
2024-04-21T19:33:31.751Z,3.61
2024-04-21T19:36:00.279Z,3.66
2024-04-21T19:38:27.451Z,3.60
2024-04-21T19:40:55.491Z,3.67
2024-04-21T19:43:23.548Z,3.68
2024-04-21T19:45:54.018Z,3.58
2024-04-21T19:48:25.023Z,3.52
2024-04-21T19:51:02.322Z,3.52
2024-04-21T19:53:30.614Z,3.51
2024-04-21T19:56:02.001Z,3.40
2024-04-21T19:58:31.997Z,3.39
2024-04-21T20:01:03.326Z,3.37
2024-04-21T20:03:31.262Z,3.29
2024-04-21T20:05:58.495Z,3.24
2024-04-21T20:08:26.250Z,3.21
2024-04-21T20:10:53.791Z,3.21
2024-04-21T20:13:22.521Z,3.23
2024-04-21T20:16:15.581Z,3.18
2024-04-21T20:18:45.214Z,3.24
2024-04-21T20:21:12.911Z,3.22
2024-04-21T20:23:42.761Z,3.13
2024-04-21T20:26:19.958Z,3.08
2024-04-21T20:28:50.288Z,3.06
2024-04-21T20:31:19.709Z,3.09
2024-04-21T20:33:51.418Z,3.07
2024-04-21T20:36:20.509Z,3.05
2024-04-21T20:38:49.010Z,3.06
2024-04-21T20:41:20.064Z,3.11
2024-04-21T20:43:48.884Z,3.17
2024-04-21T20:46:24.020Z,3.23
2024-04-21T20:48:56.824Z,3.38
2024-04-21T20:51:28.026Z,3.45
2024-04-21T20:53:56.360Z,3.46
2024-04-21T20:56:24.518Z,3.63
2024-04-21T20:58:53.578Z,3.63
2024-04-21T21:01:24.077Z,3.64
2024-04-21T21:03:51.644Z,3.68
2024-04-21T21:06:23.262Z,3.69
2024-04-21T21:08:51.048Z,3.75
2024-04-21T21:11:19.745Z,3.75
2024-04-21T21:13:47.529Z,3.87
2024-04-21T21:16:15.637Z,3.93
2024-04-21T21:18:43.458Z,4.11
2024-04-21T21:21:11.270Z,4.17
2024-04-21T21:23:38.641Z,4.19
2024-04-21T21:26:06.526Z,4.27
2024-04-21T21:28:34.287Z,4.29
2024-04-21T21:31:06.065Z,4.31
2024-04-21T21:33:35.063Z,4.31
2024-04-21T21:36:02.465Z,4.27
2024-04-21T21:38:30.572Z,4.41
2024-04-21T21:40:58.076Z,4.32
2024-04-21T21:43:26.160Z,4.36
2024-04-21T21:45:54.836Z,4.34
2024-04-21T21:48:22.524Z,4.34
2024-04-21T21:50:50.506Z,4.29
2024-04-21T21:53:19.423Z,4.29
2024-04-21T21:55:46.917Z,4.37
2024-04-21T21:58:14.887Z,4.32
2024-04-21T22:00:42.479Z,4.36
2024-04-21T22:03:11.955Z,4.36
2024-04-21T22:05:40.327Z,4.44
2024-04-21T22:08:08.497Z,4.32
2024-04-21T22:10:36.151Z,4.38
2024-04-21T22:13:04.015Z,4.28
2024-04-21T22:15:31.727Z,4.35
2024-04-21T22:17:59.462Z,4.33
2024-04-21T22:20:30.393Z,4.27
2024-04-21T22:22:58.664Z,4.23
2024-04-21T22:25:26.033Z,4.21
2024-04-21T22:27:54.461Z,4.22
2024-04-21T22:30:22.729Z,4.19
2024-04-21T22:32:51.018Z,4.18
2024-04-21T22:35:21.143Z,4.21
2024-04-21T22:37:49.329Z,4.16
2024-04-21T22:40:17.353Z,4.20
2024-04-21T22:42:48.181Z,4.23
2024-04-21T22:45:18.171Z,4.38
2024-04-21T22:47:45.820Z,4.35
2024-04-21T22:50:15.260Z,4.35
2024-04-21T22:52:42.709Z,4.33
2024-04-21T22:55:11.171Z,4.37
2024-04-21T22:57:40.437Z,4.42
2024-04-21T23:00:08.789Z,4.37
2024-04-21T23:02:36.318Z,4.41
2024-04-21T23:05:04.583Z,4.44
2024-04-21T23:07:32.568Z,4.48
2024-04-21T23:10:00.209Z,4.38
2024-04-21T23:12:30.752Z,4.43
2024-04-21T23:14:58.796Z,4.35
2024-04-21T23:17:27.179Z,4.35
2024-04-21T23:19:54.934Z,4.39
2024-04-21T23:22:22.504Z,4.40
2024-04-21T23:24:50.370Z,4.36
2024-04-21T23:27:18.855Z,4.35
2024-04-21T23:29:47.756Z,4.39
2024-04-21T23:32:15.544Z,4.32
2024-04-21T23:34:43.880Z,4.34
2024-04-21T23:37:12.543Z,4.31
2024-04-21T23:39:40.574Z,4.30
2024-04-21T23:42:08.982Z,4.35
2024-04-21T23:44:36.603Z,4.34
2024-04-21T23:47:04.308Z,4.38
2024-04-21T23:49:32.009Z,4.28
2024-04-21T23:52:00.399Z,4.33
2024-04-21T23:54:28.297Z,4.31
2024-04-21T23:56:56.166Z,4.31
2024-04-21T23:59:24.560Z,4.21
